createdAt,value
2022-11-30T00:00:57.524Z,7.57
2022-11-30T00:03:27.796Z,8.55
2022-11-30T00:05:55.999Z,6.38
2022-11-30T00:08:26.823Z,5.05
2022-11-30T00:10:54.969Z,4.15
2022-11-30T00:13:23.710Z,3.83
2022-11-30T00:15:51.952Z,3.67
2022-11-30T00:18:20.137Z,3.20
2022-11-30T00:20:49.994Z,2.50
2022-11-30T00:23:18.111Z,1.98
2022-11-30T00:25:46.230Z,3.53
2022-11-30T00:28:14.335Z,1.33
2022-11-30T00:30:42.565Z,1.63
2022-11-30T00:33:10.723Z,2.05
2022-11-30T00:35:38.856Z,4.22
2022-11-30T00:38:08.353Z,1.63
2022-11-30T00:40:36.771Z,1.60
2022-11-30T00:43:04.922Z,1.70
2022-11-30T00:45:33.187Z,1.15
2022-11-30T00:48:01.361Z,1.40
2022-11-30T00:50:29.553Z,1.67
2022-11-30T00:52:58.198Z,1.33
2022-11-30T00:55:30.395Z,1.50
2022-11-30T00:57:58.734Z,1.75
2022-11-30T01:00:27.300Z,1.98
2022-11-30T01:02:55.636Z,1.70
2022-11-30T01:05:24.138Z,2.28
2022-11-30T01:07:52.490Z,1.58
2022-11-30T01:10:21.071Z,1.27
2022-11-30T01:12:50.661Z,1.45
2022-11-30T01:15:19.435Z,2.15
2022-11-30T01:17:47.664Z,1.15
2022-11-30T01:20:16.025Z,1.30
2022-11-30T01:22:44.372Z,0.98
2022-11-30T01:25:12.676Z,1.48
2022-11-30T01:27:42.189Z,1.80
2022-11-30T01:30:13.668Z,1.38
2022-11-30T01:32:42.439Z,1.40
2022-11-30T01:35:11.841Z,2.15
2022-11-30T01:37:40.031Z,2.85
2022-11-30T01:40:09.436Z,1.40
2022-11-30T01:42:38.075Z,1.75
2022-11-30T01:45:07.999Z,1.40
2022-11-30T01:47:41.656Z,1.33
2022-11-30T01:50:14.394Z,0.93
2022-11-30T01:52:46.071Z,1.40
2022-11-30T01:55:21.331Z,1.30
2022-11-30T01:57:53.075Z,2.15
2022-11-30T02:00:21.802Z,1.20
2022-11-30T02:03:00.913Z,1.30
2022-11-30T02:05:30.214Z,1.35
2022-11-30T02:07:58.728Z,1.52
2022-11-30T02:10:29.766Z,1.35
2022-11-30T02:13:19.554Z,1.40
2022-11-30T02:15:58.246Z,1.85
2022-11-30T02:18:34.491Z,1.80
2022-11-30T02:21:10.817Z,1.80
2022-11-30T02:24:13.753Z,1.95
2022-11-30T02:26:58.442Z,1.77
2022-11-30T02:29:31.529Z,2.90
2022-11-30T02:32:07.242Z,2.20
2022-11-30T02:34:37.891Z,2.03
2022-11-30T02:37:09.034Z,1.80
2022-11-30T02:39:37.339Z,1.42
2022-11-30T02:42:07.166Z,2.70
2022-11-30T02:44:36.865Z,1.50
2022-11-30T02:47:16.085Z,1.98
2022-11-30T02:49:51.092Z,3.22
2022-11-30T02:52:21.051Z,2.08
2022-11-30T02:54:49.628Z,2.38
2022-11-30T02:57:17.893Z,2.60
2022-11-30T02:59:47.520Z,2.20
2022-11-30T03:02:15.907Z,3.92
2022-11-30T03:04:44.137Z,2.47
2022-11-30T03:07:12.336Z,3.00
2022-11-30T03:09:40.531Z,4.03
2022-11-30T03:12:08.846Z,4.95
2022-11-30T03:14:37.020Z,6.18
2022-11-30T03:17:07.259Z,4.72
2022-11-30T03:19:35.426Z,6.10
2022-11-30T03:22:03.650Z,5.30
2022-11-30T03:24:31.817Z,5.40
2022-11-30T03:26:59.938Z,8.73
2022-11-30T03:29:28.198Z,9.55
2022-11-30T03:31:56.430Z,8.70
2022-11-30T03:34:27.598Z,9.07
2022-11-30T03:36:55.990Z,8.38
2022-11-30T03:39:24.854Z,10.32
2022-11-30T03:41:53.233Z,11.00
2022-11-30T03:44:21.515Z,9.48
2022-11-30T03:46:49.798Z,7.63
2022-11-30T03:49:17.990Z,11.18
2022-11-30T03:51:47.578Z,9.35
2022-11-30T03:54:15.799Z,8.40
2022-11-30T03:56:44.077Z,9.32
2022-11-30T03:59:12.331Z,10.50
2022-11-30T04:01:41.451Z,7.90
2022-11-30T04:04:09.764Z,8.25
2022-11-30T04:06:38.187Z,8.30
2022-11-30T04:09:07.867Z,9.52
2022-11-30T04:11:36.233Z,9.27
2022-11-30T04:14:04.913Z,10.55
2022-11-30T04:16:33.277Z,9.30
2022-11-30T04:19:02.381Z,10.00
2022-11-30T04:21:30.588Z,9.43
2022-11-30T04:23:58.753Z,8.45
2022-11-30T04:26:28.416Z,10.32
2022-11-30T04:28:57.069Z,10.05
2022-11-30T04:31:25.273Z,12.48
2022-11-30T04:33:54.498Z,13.70
2022-11-30T04:36:22.756Z,9.27
2022-11-30T04:38:50.986Z,10.70
2022-11-30T04:41:19.155Z,8.50
2022-11-30T04:43:48.632Z,9.27
2022-11-30T04:46:16.930Z,17.85
2022-11-30T04:48:45.047Z,8.13
2022-11-30T04:51:13.178Z,9.00
2022-11-30T04:53:41.349Z,8.63
2022-11-30T04:56:11.474Z,9.00
2022-11-30T04:58:40.399Z,6.68
2022-11-30T05:01:10.186Z,7.25
2022-11-30T05:03:38.586Z,7.75
2022-11-30T05:06:07.218Z,8.10
2022-11-30T05:08:35.394Z,6.75
2022-11-30T05:11:03.601Z,5.80
2022-11-30T05:13:31.733Z,7.40
2022-11-30T05:16:00.000Z,6.53
2022-11-30T05:18:31.712Z,8.75
2022-11-30T05:21:00.079Z,7.18
2022-11-30T05:23:28.237Z,7.82
2022-11-30T05:25:56.407Z,7.43
2022-11-30T05:28:24.631Z,8.65
2022-11-30T05:30:52.803Z,6.97
2022-11-30T05:33:20.950Z,6.93
2022-11-30T05:35:50.420Z,8.27
2022-11-30T05:38:18.721Z,8.75
2022-11-30T05:40:46.878Z,7.88
2022-11-30T05:43:15.018Z,8.10
2022-11-30T05:45:43.176Z,11.00
2022-11-30T05:48:11.388Z,7.45
2022-11-30T05:50:39.534Z,9.02
2022-11-30T05:53:09.011Z,9.55
2022-11-30T05:55:37.152Z,12.75
2022-11-30T05:58:05.267Z,7.00
2022-11-30T06:00:33.450Z,8.15
2022-11-30T06:03:01.783Z,8.07
2022-11-30T06:05:30.129Z,7.47
2022-11-30T06:08:00.747Z,7.45
2022-11-30T06:10:30.404Z,8.15
2022-11-30T06:12:58.605Z,8.18
2022-11-30T06:15:26.915Z,8.10
2022-11-30T06:17:57.107Z,8.88
2022-11-30T06:20:25.363Z,8.00
2022-11-30T06:22:53.557Z,7.80
2022-11-30T06:25:21.711Z,10.20
2022-11-30T06:27:51.207Z,10.30
2022-11-30T06:30:19.503Z,9.02
2022-11-30T06:32:48.179Z,9.85
2022-11-30T06:35:17.195Z,9.02
2022-11-30T06:37:45.794Z,12.90
2022-11-30T06:40:15.070Z,11.45
2022-11-30T06:42:43.274Z,9.90
2022-11-30T06:45:13.242Z,13.52
2022-11-30T06:47:41.708Z,10.85
2022-11-30T06:50:10.331Z,10.98
2022-11-30T06:52:38.511Z,13.15
2022-11-30T06:55:08.055Z,12.90
2022-11-30T06:57:36.162Z,12.48
2022-11-30T07:00:05.716Z,10.95
2022-11-30T07:02:36.139Z,9.50
2022-11-30T07:05:04.424Z,10.00
2022-11-30T07:07:33.194Z,11.05
2022-11-30T07:10:01.473Z,7.78
2022-11-30T07:12:29.615Z,8.93
2022-11-30T07:14:57.762Z,8.77
2022-11-30T07:17:25.937Z,7.55
2022-11-30T07:19:55.615Z,7.50
2022-11-30T07:22:23.760Z,8.60
2022-11-30T07:25:09.412Z,7.43
2022-11-30T07:27:37.707Z,8.70
2022-11-30T07:30:07.249Z,7.28
2022-11-30T07:32:35.442Z,10.32
2022-11-30T07:35:05.291Z,11.20
2022-11-30T07:37:33.490Z,8.23
2022-11-30T07:40:01.703Z,6.88
2022-11-30T07:42:29.874Z,6.75
2022-11-30T07:44:59.240Z,8.63
2022-11-30T07:47:27.719Z,8.85
2022-11-30T07:49:55.908Z,8.50
2022-11-30T07:52:25.555Z,9.55
2022-11-30T07:54:53.749Z,10.30
2022-11-30T07:57:21.932Z,11.02
2022-11-30T07:59:50.402Z,10.15
2022-11-30T08:02:18.753Z,9.30
2022-11-30T08:04:47.350Z,11.02
2022-11-30T08:07:15.942Z,8.32
2022-11-30T08:09:46.189Z,8.38
2022-11-30T08:12:14.315Z,7.80
2022-11-30T08:15:11.665Z,7.35
2022-11-30T08:17:30.599Z,6.78
2022-11-30T08:19:58.764Z,7.82
2022-11-30T08:22:26.995Z,7.80
2022-11-30T08:24:56.593Z,6.85
2022-11-30T08:27:24.783Z,7.70
2022-11-30T08:29:53.026Z,10.48
2022-11-30T08:32:21.363Z,9.85
2022-11-30T08:34:49.680Z,9.90
2022-11-30T08:37:18.068Z,9.52
2022-11-30T08:39:46.243Z,8.18
2022-11-30T08:42:15.819Z,9.15
2022-11-30T08:44:43.984Z,11.18
2022-11-30T08:47:12.344Z,8.40
2022-11-30T08:49:40.531Z,9.38
2022-11-30T08:52:16.897Z,10.75
2022-11-30T08:54:48.090Z,9.07
2022-11-30T08:57:19.582Z,8.48
2022-11-30T08:59:48.578Z,6.88
2022-11-30T09:02:18.797Z,7.90
2022-11-30T09:04:51.195Z,7.53
2022-11-30T09:07:20.053Z,8.93
2022-11-30T09:09:48.631Z,7.72
2022-11-30T09:12:18.283Z,8.05
2022-11-30T09:14:50.870Z,7.30
2022-11-30T09:17:22.264Z,9.00
2022-11-30T09:19:50.471Z,8.27
2022-11-30T09:22:19.452Z,6.45
2022-11-30T09:24:47.707Z,7.57
2022-11-30T09:27:16.017Z,6.90
2022-11-30T09:29:45.945Z,5.90
2022-11-30T09:32:14.268Z,8.15
2022-11-30T09:34:44.290Z,7.18
2022-11-30T09:37:12.589Z,6.65
2022-11-30T09:39:40.763Z,12.50
2022-11-30T09:42:44.391Z,5.40
2022-11-30T09:45:19.683Z,5.03
2022-11-30T09:48:10.697Z,4.10
2022-11-30T09:50:43.202Z,4.57
2022-11-30T09:53:27.671Z,4.20
2022-11-30T09:55:58.092Z,4.35
2022-11-30T09:58:34.633Z,4.30
2022-11-30T10:01:07.341Z,4.18
2022-11-30T10:03:35.861Z,5.15
2022-11-30T10:06:10.268Z,6.00
2022-11-30T10:08:50.912Z,6.03
2022-11-30T10:11:54.680Z,4.97
2022-11-30T10:14:56.002Z,7.28
2022-11-30T10:17:38.387Z,8.57
2022-11-30T10:20:46.881Z,6.95
2022-11-30T10:23:31.446Z,6.82
2022-11-30T10:26:04.541Z,8.23
2022-11-30T10:28:47.787Z,6.18
2022-11-30T10:31:17.620Z,7.68
2022-11-30T10:33:50.379Z,5.70
2022-11-30T10:36:26.412Z,5.85
2022-11-30T10:39:00.423Z,4.68
2022-11-30T10:41:33.323Z,6.53
2022-11-30T10:44:06.201Z,5.60
2022-11-30T10:46:37.417Z,4.50
2022-11-30T10:49:12.928Z,4.13
2022-11-30T10:51:44.334Z,4.05
2022-11-30T10:54:16.945Z,4.03
2022-11-30T10:56:45.043Z,5.93
2022-11-30T10:59:19.404Z,4.60
2022-11-30T11:01:47.668Z,4.47
2022-11-30T11:04:19.594Z,3.33
2022-11-30T11:06:51.842Z,4.35
2022-11-30T11:09:42.383Z,4.28
2022-11-30T11:12:18.085Z,5.82
2022-11-30T11:14:46.601Z,4.90
2022-11-30T11:17:26.459Z,4.93
2022-11-30T11:19:56.056Z,4.82
2022-11-30T11:22:26.257Z,5.78
2022-11-30T11:24:57.404Z,5.47
2022-11-30T11:27:29.024Z,5.50
2022-11-30T11:30:07.720Z,9.98
2022-11-30T11:32:36.345Z,6.95
2022-11-30T11:35:37.362Z,8.07
2022-11-30T11:38:06.336Z,7.10
2022-11-30T11:40:35.163Z,9.88
2022-11-30T11:43:04.322Z,6.72
2022-11-30T11:45:39.438Z,7.22
2022-11-30T11:48:29.299Z,5.80
2022-11-30T11:51:09.136Z,6.43
2022-11-30T11:53:53.247Z,3.95
2022-11-30T11:56:28.387Z,4.97
2022-11-30T11:59:00.008Z,4.05
2022-11-30T12:01:42.447Z,4.03
2022-11-30T12:04:26.591Z,4.10
2022-11-30T12:06:59.349Z,6.72
2022-11-30T12:09:32.449Z,6.07
2022-11-30T12:12:00.840Z,6.68
2022-11-30T12:14:30.379Z,6.55
2022-11-30T12:17:16.444Z,5.80
2022-11-30T12:19:56.279Z,8.35
2022-11-30T12:22:49.856Z,9.38
2022-11-30T12:25:25.868Z,10.57
2022-11-30T12:28:05.785Z,10.27
2022-11-30T12:30:45.059Z,9.32
2022-11-30T12:33:18.616Z,11.05
2022-11-30T12:35:59.298Z,6.80
2022-11-30T12:38:38.009Z,7.90
2022-11-30T12:41:20.337Z,6.93
2022-11-30T12:43:59.412Z,7.78
2022-11-30T12:46:36.419Z,8.45
2022-11-30T12:49:21.464Z,3.72
2022-11-30T12:51:58.838Z,2.63
2022-11-30T12:54:37.204Z,2.35
2022-11-30T12:57:14.487Z,3.13
2022-11-30T12:59:48.661Z,3.28
2022-11-30T13:02:52.111Z,2.75
2022-11-30T13:05:26.442Z,2.78
2022-11-30T13:08:01.568Z,2.53
2022-11-30T13:10:36.379Z,8.55
2022-11-30T13:13:05.827Z,3.17
2022-11-30T13:15:36.146Z,2.50
2022-11-30T13:18:05.223Z,4.20
2022-11-30T13:20:41.339Z,3.60
2022-11-30T13:23:15.489Z,8.93
2022-11-30T13:28:56.650Z,2.85
2022-11-30T13:31:28.919Z,5.47
2022-11-30T13:34:01.183Z,2.30
2022-11-30T13:36:36.889Z,5.95
2022-11-30T13:39:22.534Z,2.47
2022-11-30T13:42:13.147Z,2.80
2022-11-30T13:44:43.059Z,5.10
2022-11-30T13:47:19.217Z,3.22
2022-11-30T13:49:47.551Z,7.68
2022-11-30T13:52:24.553Z,7.65
2022-11-30T13:54:55.664Z,8.32
2022-11-30T13:58:01.484Z,8.77
2022-11-30T14:00:49.212Z,16.60
2022-11-30T14:03:25.494Z,18.02
2022-11-30T14:05:54.160Z,17.13
2022-11-30T14:08:40.295Z,23.80
2022-11-30T14:11:44.773Z,15.48
2022-11-30T14:14:45.455Z,9.32
2022-11-30T14:17:29.009Z,7.55
2022-11-30T14:20:00.364Z,6.15
2022-11-30T14:22:30.355Z,4.63
2022-11-30T14:24:58.870Z,3.72
2022-11-30T14:27:30.156Z,3.50
2022-11-30T14:30:03.363Z,4.18
2022-11-30T14:32:39.019Z,3.20
2022-11-30T14:35:11.648Z,3.25
2022-11-30T14:37:45.811Z,5.18
2022-11-30T14:40:20.071Z,8.90
2022-11-30T14:42:51.710Z,4.20
2022-11-30T14:45:22.124Z,4.43
2022-11-30T14:47:55.073Z,5.05
2022-11-30T14:50:25.523Z,5.00
2022-11-30T14:53:08.205Z,4.00
2022-11-30T14:55:42.591Z,4.55
2022-11-30T14:58:22.403Z,5.45
2022-11-30T15:00:51.648Z,5.55
2022-11-30T15:03:26.878Z,4.75
2022-11-30T15:05:57.667Z,7.03
2022-11-30T15:08:33.574Z,5.18
2022-11-30T15:11:05.929Z,6.72
2022-11-30T15:13:35.487Z,6.70
2022-11-30T15:16:03.888Z,4.93
2022-11-30T15:18:33.466Z,4.68
2022-11-30T15:21:07.435Z,5.15
2022-11-30T15:23:35.688Z,4.75
2022-11-30T15:26:10.541Z,9.60
2022-11-30T15:28:42.495Z,9.85
2022-11-30T15:31:16.072Z,6.55
2022-11-30T15:33:48.058Z,8.50
2022-11-30T15:36:32.026Z,4.68
2022-11-30T15:39:04.509Z,6.40
2022-11-30T15:41:34.287Z,5.63
2022-11-30T15:44:03.259Z,5.75
2022-11-30T15:46:36.258Z,6.80
2022-11-30T15:49:16.782Z,7.75
2022-11-30T15:51:47.134Z,5.35
2022-11-30T15:54:15.787Z,4.35
2022-11-30T15:56:56.705Z,8.63
2022-11-30T15:59:26.404Z,3.65
2022-11-30T16:02:04.847Z,4.53
2022-11-30T16:05:20.932Z,4.10
2022-11-30T16:07:53.419Z,5.40
2022-11-30T16:10:24.510Z,5.50
2022-11-30T16:12:54.103Z,5.07
2022-11-30T16:15:24.462Z,8.50
2022-11-30T16:17:54.139Z,8.27
2022-11-30T16:20:22.712Z,8.32
2022-11-30T16:22:52.476Z,3.70
2022-11-30T16:25:22.582Z,3.70
2022-11-30T16:27:51.680Z,3.88
2022-11-30T16:30:22.471Z,4.10
2022-11-30T16:32:51.079Z,4.00
2022-11-30T16:35:22.849Z,5.50
2022-11-30T16:37:53.108Z,7.15
2022-11-30T16:40:21.495Z,8.35
2022-11-30T16:42:51.083Z,9.10
2022-11-30T16:45:22.026Z,5.10
2022-11-30T16:47:50.855Z,4.07
2022-11-30T16:50:20.079Z,5.22
2022-11-30T16:52:48.541Z,3.90
2022-11-30T16:55:20.422Z,8.38
2022-11-30T16:57:49.777Z,8.70
2022-11-30T17:00:20.735Z,7.45
2022-11-30T17:02:56.468Z,5.72
2022-11-30T17:05:25.597Z,6.72
2022-11-30T17:07:54.412Z,6.50
2022-11-30T17:10:24.318Z,7.47
2022-11-30T17:12:52.473Z,5.10
2022-11-30T17:15:23.647Z,7.03
2022-11-30T17:17:51.994Z,4.93
2022-11-30T17:20:20.362Z,7.85
2022-11-30T17:22:48.501Z,6.88
2022-11-30T17:25:18.900Z,6.05
2022-11-30T17:27:49.560Z,11.00
2022-11-30T17:30:20.324Z,8.65
2022-11-30T17:32:48.466Z,8.98
2022-11-30T17:35:16.656Z,11.02
2022-11-30T17:37:44.909Z,10.77
2022-11-30T17:40:15.860Z,9.05
2022-11-30T17:42:44.601Z,9.88
2022-11-30T17:45:14.486Z,11.30
2022-11-30T17:47:42.742Z,16.77
2022-11-30T17:50:11.326Z,12.38
2022-11-30T17:52:39.421Z,11.80
2022-11-30T17:55:08.660Z,10.48
2022-11-30T17:57:38.793Z,8.07
2022-11-30T18:00:08.903Z,7.70
2022-11-30T18:02:38.459Z,5.90
2022-11-30T18:05:07.554Z,5.90
2022-11-30T18:07:35.819Z,6.82
2022-11-30T18:10:04.378Z,5.50
2022-11-30T18:12:32.586Z,6.55
2022-11-30T18:15:00.768Z,6.05
2022-11-30T18:17:29.045Z,6.35
2022-11-30T18:19:58.766Z,6.63
2022-11-30T18:22:28.338Z,7.28
2022-11-30T18:24:56.510Z,7.22
2022-11-30T18:27:26.476Z,13.30
2022-11-30T18:29:54.622Z,14.27
2022-11-30T18:32:22.712Z,8.40
2022-11-30T18:34:50.996Z,12.65
2022-11-30T18:37:20.578Z,9.75
2022-11-30T18:39:48.724Z,8.90
2022-11-30T18:42:18.230Z,8.85
2022-11-30T18:44:46.671Z,7.45
2022-11-30T18:47:15.050Z,7.82
2022-11-30T18:49:43.161Z,9.52
2022-11-30T18:52:11.465Z,7.90
2022-11-30T18:54:41.098Z,10.48
2022-11-30T18:57:09.398Z,6.45
2022-11-30T18:59:37.524Z,8.30
2022-11-30T19:02:05.810Z,11.13
2022-11-30T19:04:34.040Z,10.32
2022-11-30T19:07:02.146Z,9.43
2022-11-30T19:09:30.709Z,9.02
2022-11-30T19:12:00.263Z,12.02
2022-11-30T19:14:28.533Z,8.55
2022-11-30T19:16:56.679Z,8.90
2022-11-30T19:19:24.820Z,9.70
2022-11-30T19:21:53.261Z,7.50
2022-11-30T19:24:21.400Z,8.02
2022-11-30T19:26:49.538Z,9.30
2022-11-30T19:29:19.095Z,7.47
2022-11-30T19:31:47.236Z,6.85
2022-11-30T19:34:15.356Z,7.82
2022-11-30T19:36:43.458Z,10.48
2022-11-30T19:39:12.026Z,7.88
2022-11-30T19:41:40.374Z,8.00
2022-11-30T19:44:08.922Z,7.90
2022-11-30T19:46:40.895Z,9.00
2022-11-30T19:49:09.911Z,9.45
2022-11-30T19:51:38.104Z,9.20
2022-11-30T19:54:06.389Z,7.95
2022-11-30T19:56:35.778Z,10.45
2022-11-30T19:59:05.451Z,11.98
2022-11-30T20:01:34.723Z,9.70
2022-11-30T20:04:05.861Z,9.43
2022-11-30T20:06:36.142Z,8.85
2022-11-30T20:09:05.018Z,8.07
2022-11-30T20:11:33.377Z,8.25
2022-11-30T20:14:01.590Z,7.07
2022-11-30T20:16:30.277Z,6.47
2022-11-30T20:19:00.950Z,7.65
2022-11-30T20:21:32.319Z,8.07
2022-11-30T20:24:02.374Z,8.32
2022-11-30T20:26:32.654Z,8.95
2022-11-30T20:29:02.595Z,9.55
2022-11-30T20:31:32.894Z,8.82
2022-11-30T20:34:01.038Z,7.63
2022-11-30T20:36:30.715Z,5.82
2022-11-30T20:38:59.962Z,6.72
2022-11-30T20:41:28.715Z,8.60
2022-11-30T20:43:57.309Z,9.20
2022-11-30T20:46:28.798Z,8.85
2022-11-30T20:48:58.254Z,7.50
2022-11-30T20:51:31.602Z,9.25
2022-11-30T20:54:03.669Z,6.88
2022-11-30T20:56:31.968Z,7.50
2022-11-30T20:59:02.951Z,8.77
2022-11-30T21:01:31.413Z,5.63
2022-11-30T21:04:00.700Z,5.05
2022-11-30T21:06:29.313Z,4.10
2022-11-30T21:08:57.531Z,2.42
2022-11-30T21:11:28.653Z,3.05
2022-11-30T21:13:57.405Z,2.60
2022-11-30T21:16:28.812Z,2.83
2022-11-30T21:18:57.968Z,3.55
2022-11-30T21:21:28.255Z,3.17
2022-11-30T21:23:58.032Z,3.40
2022-11-30T21:26:29.748Z,2.30
2022-11-30T21:29:01.954Z,6.90
2022-11-30T21:31:31.011Z,2.55
2022-11-30T21:33:59.579Z,3.53
2022-11-30T21:36:28.442Z,4.00
2022-11-30T21:39:04.580Z,4.20
2022-11-30T21:41:35.560Z,4.80
2022-11-30T21:44:03.944Z,4.70
2022-11-30T21:46:32.404Z,6.70
2022-11-30T21:49:00.617Z,3.85
2022-11-30T21:51:30.439Z,3.80
2022-11-30T21:54:00.542Z,2.92
2022-11-30T21:56:30.768Z,2.50
2022-11-30T21:59:01.003Z,2.30
2022-11-30T22:01:31.202Z,2.05
2022-11-30T22:04:00.702Z,1.92
2022-11-30T22:06:30.625Z,2.10
2022-11-30T22:09:03.498Z,2.22
2022-11-30T22:11:32.547Z,1.98
2022-11-30T22:14:02.061Z,1.98
2022-11-30T22:16:35.806Z,1.80
2022-11-30T22:19:05.803Z,1.55
2022-11-30T22:21:34.617Z,2.65
2022-11-30T22:24:04.561Z,1.27
2022-11-30T22:26:34.251Z,1.85
2022-11-30T22:29:06.696Z,1.70
2022-11-30T22:31:36.981Z,2.40
2022-11-30T22:34:06.158Z,3.45
2022-11-30T22:36:35.701Z,2.65
2022-11-30T22:39:07.216Z,4.10
2022-11-30T22:41:35.413Z,3.67
2022-11-30T22:44:05.122Z,5.80
2022-11-30T22:46:35.310Z,4.32
2022-11-30T22:49:06.011Z,3.63
2022-11-30T22:51:36.118Z,3.28
2022-11-30T22:54:04.425Z,3.13
2022-11-30T22:56:34.269Z,3.97
2022-11-30T22:59:04.903Z,4.90
2022-11-30T23:01:35.059Z,3.13
2022-11-30T23:04:05.977Z,2.78
2022-11-30T23:06:35.063Z,3.55
2022-11-30T23:09:04.167Z,2.28
2022-11-30T23:11:32.845Z,2.05
2022-11-30T23:14:01.461Z,1.92
2022-11-30T23:16:30.937Z,1.98
2022-11-30T23:19:00.246Z,2.13
2022-11-30T23:21:33.641Z,1.60
2022-11-30T23:24:07.017Z,1.52
2022-11-30T23:26:37.390Z,1.52
2022-11-30T23:29:07.507Z,1.85
2022-11-30T23:31:38.688Z,3.88
2022-11-30T23:34:10.438Z,1.30
2022-11-30T23:36:38.918Z,1.30
2022-11-30T23:39:09.321Z,1.27
2022-11-30T23:41:38.462Z,0.80
2022-11-30T23:44:07.511Z,2.10
2022-11-30T23:46:37.991Z,1.27
2022-11-30T23:49:06.242Z,1.30
2022-11-30T23:51:35.517Z,1.40
2022-11-30T23:54:04.148Z,1.60
2022-11-30T23:56:32.287Z,1.38
2022-11-30T23:59:00.392Z,3.88
